sensor_id;sensor_type;location;lat;lon;timestamp;temperature;humidity
19403;DHT22;9837;48.888;8.998;2024-02-21T00:00:10;10.50;69.40
19403;DHT22;9837;48.888;8.998;2024-02-21T00:02:37;10.80;67.90
19403;DHT22;9837;48.888;8.998;2024-02-21T00:07:28;11.40;66.10
19403;DHT22;9837;48.888;8.998;2024-02-21T00:12:20;11.50;65.40
19403;DHT22;9837;48.888;8.998;2024-02-21T00:14:45;11.60;65.30
19403;DHT22;9837;48.888;8.998;2024-02-21T00:17:11;11.60;64.90
19403;DHT22;9837;48.888;8.998;2024-02-21T00:19:36;11.50;65.10
19403;DHT22;9837;48.888;8.998;2024-02-21T00:22:02;11.30;65.80
19403;DHT22;9837;48.888;8.998;2024-02-21T00:24:27;11.00;66.40
19403;DHT22;9837;48.888;8.998;2024-02-21T00:26:54;10.90;67.00
19403;DHT22;9837;48.888;8.998;2024-02-21T00:29:20;11.00;66.90
19403;DHT22;9837;48.888;8.998;2024-02-21T00:31:45;11.00;66.20
19403;DHT22;9837;48.888;8.998;2024-02-21T00:34:11;10.80;67.10
19403;DHT22;9837;48.888;8.998;2024-02-21T00:36:38;10.50;68.10
19403;DHT22;9837;48.888;8.998;2024-02-21T00:39:03;10.30;69.00
19403;DHT22;9837;48.888;8.998;2024-02-21T00:41:29;10.50;68.70
19403;DHT22;9837;48.888;8.998;2024-02-21T00:43:55;10.90;67.40
19403;DHT22;9837;48.888;8.998;2024-02-21T00:46:20;10.80;67.00
19403;DHT22;9837;48.888;8.998;2024-02-21T00:51:11;10.40;68.50
19403;DHT22;9837;48.888;8.998;2024-02-21T00:53:37;10.20;70.00
19403;DHT22;9837;48.888;8.998;2024-02-21T00:56:05;10.40;68.80
19403;DHT22;9837;48.888;8.998;2024-02-21T00:58:30;10.30;68.50
19403;DHT22;9837;48.888;8.998;2024-02-21T01:00:56;10.30;68.80
19403;DHT22;9837;48.888;8.998;2024-02-21T01:03:21;10.10;69.30
19403;DHT22;9837;48.888;8.998;2024-02-21T01:05:47;10.10;69.90
19403;DHT22;9837;48.888;8.998;2024-02-21T01:08:12;10.00;69.70
19403;DHT22;9837;48.888;8.998;2024-02-21T01:10:38;10.20;69.50
19403;DHT22;9837;48.888;8.998;2024-02-21T01:13:03;10.50;68.30
19403;DHT22;9837;48.888;8.998;2024-02-21T01:15:29;10.30;68.60
19403;DHT22;9837;48.888;8.998;2024-02-21T01:17:54;10.40;68.70
19403;DHT22;9837;48.888;8.998;2024-02-21T01:20:21;10.70;67.50
19403;DHT22;9837;48.888;8.998;2024-02-21T01:25:12;10.50;67.80
19403;DHT22;9837;48.888;8.998;2024-02-21T01:27:38;10.60;68.20
19403;DHT22;9837;48.888;8.998;2024-02-21T01:30:04;10.80;67.30
19403;DHT22;9837;48.888;8.998;2024-02-21T01:32:31;11.00;66.90
19403;DHT22;9837;48.888;8.998;2024-02-21T01:34:56;10.90;66.90
19403;DHT22;9837;48.888;8.998;2024-02-21T01:37:22;10.50;67.80
19403;DHT22;9837;48.888;8.998;2024-02-21T01:39:47;10.20;69.40
19403;DHT22;9837;48.888;8.998;2024-02-21T01:42:14;10.10;69.20
19403;DHT22;9837;48.888;8.998;2024-02-21T01:44:40;10.10;69.90
19403;DHT22;9837;48.888;8.998;2024-02-21T01:47:07;10.10;69.80
19403;DHT22;9837;48.888;8.998;2024-02-21T01:49:33;10.10;69.80
19403;DHT22;9837;48.888;8.998;2024-02-21T01:51:59;10.10;69.60
19403;DHT22;9837;48.888;8.998;2024-02-21T01:54:25;10.00;70.20
19403;DHT22;9837;48.888;8.998;2024-02-21T01:59:21;10.20;69.30
19403;DHT22;9837;48.888;8.998;2024-02-21T02:01:47;9.70;69.90
19403;DHT22;9837;48.888;8.998;2024-02-21T02:04:13;9.90;70.80
19403;DHT22;9837;48.888;8.998;2024-02-21T02:06:39;10.00;70.10
19403;DHT22;9837;48.888;8.998;2024-02-21T02:09:05;9.90;70.80
19403;DHT22;9837;48.888;8.998;2024-02-21T02:11:32;9.80;71.20
19403;DHT22;9837;48.888;8.998;2024-02-21T02:13:57;10.40;69.50
19403;DHT22;9837;48.888;8.998;2024-02-21T02:16:23;10.20;69.20
19403;DHT22;9837;48.888;8.998;2024-02-21T02:18:48;10.20;69.70
19403;DHT22;9837;48.888;8.998;2024-02-21T02:21:27;10.40;68.70
19403;DHT22;9837;48.888;8.998;2024-02-21T02:23:54;10.60;68.50
19403;DHT22;9837;48.888;8.998;2024-02-21T02:26:19;10.60;68.40
19403;DHT22;9837;48.888;8.998;2024-02-21T02:31:11;10.70;68.70
19403;DHT22;9837;48.888;8.998;2024-02-21T02:33:36;10.60;70.00
19403;DHT22;9837;48.888;8.998;2024-02-21T02:36:02;10.50;70.50
19403;DHT22;9837;48.888;8.998;2024-02-21T02:38:27;10.10;71.60
19403;DHT22;9837;48.888;8.998;2024-02-21T02:40:53;10.30;72.90
19403;DHT22;9837;48.888;8.998;2024-02-21T02:43:18;10.80;70.80
19403;DHT22;9837;48.888;8.998;2024-02-21T02:45:44;11.20;69.70
19403;DHT22;9837;48.888;8.998;2024-02-21T02:48:09;11.50;68.50
19403;DHT22;9837;48.888;8.998;2024-02-21T02:50:35;11.70;67.70
19403;DHT22;9837;48.888;8.998;2024-02-21T02:53:00;11.80;67.20
19403;DHT22;9837;48.888;8.998;2024-02-21T02:55:26;11.90;66.80
19403;DHT22;9837;48.888;8.998;2024-02-21T02:57:51;11.80;66.40
19403;DHT22;9837;48.888;8.998;2024-02-21T03:00:17;11.90;66.50
19403;DHT22;9837;48.888;8.998;2024-02-21T03:02:44;11.90;66.50
19403;DHT22;9837;48.888;8.998;2024-02-21T03:05:16;11.90;66.50
19403;DHT22;9837;48.888;8.998;2024-02-21T03:07:42;11.90;66.50
19403;DHT22;9837;48.888;8.998;2024-02-21T03:12:35;11.80;66.40
19403;DHT22;9837;48.888;8.998;2024-02-21T03:15:00;11.80;66.50
19403;DHT22;9837;48.888;8.998;2024-02-21T03:17:26;11.70;66.60
19403;DHT22;9837;48.888;8.998;2024-02-21T03:19:55;11.60;66.70
19403;DHT22;9837;48.888;8.998;2024-02-21T03:24:51;11.60;66.50
19403;DHT22;9837;48.888;8.998;2024-02-21T03:29:42;11.60;66.80
19403;DHT22;9837;48.888;8.998;2024-02-21T03:32:08;11.60;66.40
19403;DHT22;9837;48.888;8.998;2024-02-21T03:34:33;11.60;66.60
19403;DHT22;9837;48.888;8.998;2024-02-21T03:36:59;11.60;66.70
19403;DHT22;9837;48.888;8.998;2024-02-21T03:39:25;11.70;66.60
19403;DHT22;9837;48.888;8.998;2024-02-21T03:41:50;11.70;66.30
19403;DHT22;9837;48.888;8.998;2024-02-21T03:44:16;11.70;66.30
19403;DHT22;9837;48.888;8.998;2024-02-21T03:46:42;11.70;66.10
19403;DHT22;9837;48.888;8.998;2024-02-21T03:51:33;11.40;66.50
19403;DHT22;9837;48.888;8.998;2024-02-21T03:53:59;11.10;67.90
19403;DHT22;9837;48.888;8.998;2024-02-21T03:56:24;11.20;67.90
19403;DHT22;9837;48.888;8.998;2024-02-21T03:58:50;11.40;67.40
19403;DHT22;9837;48.888;8.998;2024-02-21T04:01:16;11.40;66.90
19403;DHT22;9837;48.888;8.998;2024-02-21T04:03:43;11.10;67.40
19403;DHT22;9837;48.888;8.998;2024-02-21T04:06:08;10.90;68.10
19403;DHT22;9837;48.888;8.998;2024-02-21T04:08:34;10.60;69.30
19403;DHT22;9837;48.888;8.998;2024-02-21T04:10:59;10.40;69.50
19403;DHT22;9837;48.888;8.998;2024-02-21T04:13:25;10.30;70.20
19403;DHT22;9837;48.888;8.998;2024-02-21T04:15:51;9.10;73.60
19403;DHT22;9837;48.888;8.998;2024-02-21T04:18:16;8.90;75.40
19403;DHT22;9837;48.888;8.998;2024-02-21T04:20:42;8.90;76.10
19403;DHT22;9837;48.888;8.998;2024-02-21T04:23:07;9.60;73.60
19403;DHT22;9837;48.888;8.998;2024-02-21T04:25:33;9.70;74.00
19403;DHT22;9837;48.888;8.998;2024-02-21T04:27:58;10.10;71.10
19403;DHT22;9837;48.888;8.998;2024-02-21T04:30:24;10.20;71.90
19403;DHT22;9837;48.888;8.998;2024-02-21T04:32:50;9.90;71.20
19403;DHT22;9837;48.888;8.998;2024-02-21T04:35:16;10.10;71.80
19403;DHT22;9837;48.888;8.998;2024-02-21T04:37:42;10.10;72.30
19403;DHT22;9837;48.888;8.998;2024-02-21T04:40:07;10.30;70.70
19403;DHT22;9837;48.888;8.998;2024-02-21T04:42:34;10.50;70.10
19403;DHT22;9837;48.888;8.998;2024-02-21T04:45:00;10.10;71.00
19403;DHT22;9837;48.888;8.998;2024-02-21T04:47:25;10.00;71.70
19403;DHT22;9837;48.888;8.998;2024-02-21T04:49:51;10.20;71.60
19403;DHT22;9837;48.888;8.998;2024-02-21T04:52:17;10.50;69.70
19403;DHT22;9837;48.888;8.998;2024-02-21T04:54:42;10.60;69.20
19403;DHT22;9837;48.888;8.998;2024-02-21T04:57:08;10.70;68.80
19403;DHT22;9837;48.888;8.998;2024-02-21T04:59:35;10.70;68.50
19403;DHT22;9837;48.888;8.998;2024-02-21T05:02:01;10.80;68.40
19403;DHT22;9837;48.888;8.998;2024-02-21T05:04:27;10.50;68.80
19403;DHT22;9837;48.888;8.998;2024-02-21T05:06:52;10.30;69.30
19403;DHT22;9837;48.888;8.998;2024-02-21T05:09:18;9.80;70.60
19403;DHT22;9837;48.888;8.998;2024-02-21T05:11:43;9.80;71.30
19403;DHT22;9837;48.888;8.998;2024-02-21T05:14:09;9.80;72.30
19403;DHT22;9837;48.888;8.998;2024-02-21T05:16:34;10.20;70.60
19403;DHT22;9837;48.888;8.998;2024-02-21T05:19:00;10.00;70.30
19403;DHT22;9837;48.888;8.998;2024-02-21T05:21:26;10.00;71.00
19403;DHT22;9837;48.888;8.998;2024-02-21T05:23:53;9.70;72.00
19403;DHT22;9837;48.888;8.998;2024-02-21T05:26:23;9.80;72.60
19403;DHT22;9837;48.888;8.998;2024-02-21T05:31:16;9.00;73.30
19403;DHT22;9837;48.888;8.998;2024-02-21T05:33:42;8.70;75.50
19403;DHT22;9837;48.888;8.998;2024-02-21T05:36:08;8.60;76.10
19403;DHT22;9837;48.888;8.998;2024-02-21T05:38:33;8.40;76.90
19403;DHT22;9837;48.888;8.998;2024-02-21T05:40:59;8.60;76.30
19403;DHT22;9837;48.888;8.998;2024-02-21T05:43:24;8.70;75.90
19403;DHT22;9837;48.888;8.998;2024-02-21T05:45:50;9.10;74.80
19403;DHT22;9837;48.888;8.998;2024-02-21T05:48:15;9.30;73.30
19403;DHT22;9837;48.888;8.998;2024-02-21T05:50:41;9.30;74.00
19403;DHT22;9837;48.888;8.998;2024-02-21T05:53:06;9.60;72.90
19403;DHT22;9837;48.888;8.998;2024-02-21T05:55:32;9.70;71.10
19403;DHT22;9837;48.888;8.998;2024-02-21T05:57:58;9.70;71.70
19403;DHT22;9837;48.888;8.998;2024-02-21T06:00:23;10.00;70.20
19403;DHT22;9837;48.888;8.998;2024-02-21T06:02:49;10.00;70.90
19403;DHT22;9837;48.888;8.998;2024-02-21T06:05:15;10.30;70.00
19403;DHT22;9837;48.888;8.998;2024-02-21T06:07:40;10.20;69.90
19403;DHT22;9837;48.888;8.998;2024-02-21T06:10:07;10.00;70.10
19403;DHT22;9837;48.888;8.998;2024-02-21T06:12:33;9.60;71.10
19403;DHT22;9837;48.888;8.998;2024-02-21T06:14:58;9.10;72.60
19403;DHT22;9837;48.888;8.998;2024-02-21T06:17:24;9.30;73.50
19403;DHT22;9837;48.888;8.998;2024-02-21T06:19:49;9.60;72.40
19403;DHT22;9837;48.888;8.998;2024-02-21T06:22:15;9.90;71.10
19403;DHT22;9837;48.888;8.998;2024-02-21T06:24:40;10.10;70.00
19403;DHT22;9837;48.888;8.998;2024-02-21T06:27:06;10.20;68.80
19403;DHT22;9837;48.888;8.998;2024-02-21T06:29:32;10.20;69.50
19403;DHT22;9837;48.888;8.998;2024-02-21T06:31:58;10.40;69.10
19403;DHT22;9837;48.888;8.998;2024-02-21T06:34:24;10.50;68.70
19403;DHT22;9837;48.888;8.998;2024-02-21T06:36:50;10.50;68.20
19403;DHT22;9837;48.888;8.998;2024-02-21T06:39:17;10.60;67.90
19403;DHT22;9837;48.888;8.998;2024-02-21T06:41:42;10.20;68.60
19403;DHT22;9837;48.888;8.998;2024-02-21T06:44:08;10.00;69.40
19403;DHT22;9837;48.888;8.998;2024-02-21T06:46:34;9.60;70.50
19403;DHT22;9837;48.888;8.998;2024-02-21T06:49:00;9.50;71.40
19403;DHT22;9837;48.888;8.998;2024-02-21T06:51:26;10.10;69.30
19403;DHT22;9837;48.888;8.998;2024-02-21T06:53:53;10.00;69.60
19403;DHT22;9837;48.888;8.998;2024-02-21T06:56:18;9.90;69.40
19403;DHT22;9837;48.888;8.998;2024-02-21T06:58:44;10.50;70.70
19403;DHT22;9837;48.888;8.998;2024-02-21T07:01:10;9.70;70.30
19403;DHT22;9837;48.888;8.998;2024-02-21T07:03:35;9.50;71.00
19403;DHT22;9837;48.888;8.998;2024-02-21T07:06:01;9.20;71.90
19403;DHT22;9837;48.888;8.998;2024-02-21T07:08:27;8.90;72.40
19403;DHT22;9837;48.888;8.998;2024-02-21T07:10:53;9.00;73.10
19403;DHT22;9837;48.888;8.998;2024-02-21T07:13:18;8.80;73.30
19403;DHT22;9837;48.888;8.998;2024-02-21T07:15:44;8.60;73.10
19403;DHT22;9837;48.888;8.998;2024-02-21T07:18:09;8.60;73.90
19403;DHT22;9837;48.888;8.998;2024-02-21T07:20:35;8.60;73.80
19403;DHT22;9837;48.888;8.998;2024-02-21T07:23:03;8.50;74.70
19403;DHT22;9837;48.888;8.998;2024-02-21T07:25:28;8.90;73.40
19403;DHT22;9837;48.888;8.998;2024-02-21T07:27:54;9.00;72.80
19403;DHT22;9837;48.888;8.998;2024-02-21T07:30:19;9.40;71.60
19403;DHT22;9837;48.888;8.998;2024-02-21T07:32:45;9.90;69.90
19403;DHT22;9837;48.888;8.998;2024-02-21T07:35:10;10.00;68.60
19403;DHT22;9837;48.888;8.998;2024-02-21T07:37:37;10.20;68.60
19403;DHT22;9837;48.888;8.998;2024-02-21T07:40:06;10.70;65.70
19403;DHT22;9837;48.888;8.998;2024-02-21T07:42:32;10.70;66.40
19403;DHT22;9837;48.888;8.998;2024-02-21T07:44:58;10.80;65.90
19403;DHT22;9837;48.888;8.998;2024-02-21T07:47:23;10.90;65.90
19403;DHT22;9837;48.888;8.998;2024-02-21T07:52:15;10.80;65.10
19403;DHT22;9837;48.888;8.998;2024-02-21T07:54:41;10.70;65.30
19403;DHT22;9837;48.888;8.998;2024-02-21T07:57:09;10.50;66.30
19403;DHT22;9837;48.888;8.998;2024-02-21T07:59:35;10.50;66.30
19403;DHT22;9837;48.888;8.998;2024-02-21T08:02:00;10.60;66.90
19403;DHT22;9837;48.888;8.998;2024-02-21T08:04:26;10.40;66.30
19403;DHT22;9837;48.888;8.998;2024-02-21T08:06:53;10.40;66.90
19403;DHT22;9837;48.888;8.998;2024-02-21T08:09:19;11.30;65.80
19403;DHT22;9837;48.888;8.998;2024-02-21T08:11:44;11.50;64.00
19403;DHT22;9837;48.888;8.998;2024-02-21T08:14:10;11.80;62.60
19403;DHT22;9837;48.888;8.998;2024-02-21T08:16:35;11.50;62.80
19403;DHT22;9837;48.888;8.998;2024-02-21T08:19:01;11.40;64.10
19403;DHT22;9837;48.888;8.998;2024-02-21T08:21:28;11.20;64.30
19403;DHT22;9837;48.888;8.998;2024-02-21T08:23:54;11.20;65.10
19403;DHT22;9837;48.888;8.998;2024-02-21T08:26:20;11.00;65.20
19403;DHT22;9837;48.888;8.998;2024-02-21T08:28:45;10.80;65.40
19403;DHT22;9837;48.888;8.998;2024-02-21T08:31:11;10.80;66.10
19403;DHT22;9837;48.888;8.998;2024-02-21T08:33:36;11.00;65.20
19403;DHT22;9837;48.888;8.998;2024-02-21T08:36:02;10.90;64.70
19403;DHT22;9837;48.888;8.998;2024-02-21T08:38:28;10.70;65.90
19403;DHT22;9837;48.888;8.998;2024-02-21T08:40:54;10.70;66.50
19403;DHT22;9837;48.888;8.998;2024-02-21T08:43:19;10.70;66.10
19403;DHT22;9837;48.888;8.998;2024-02-21T08:45:45;10.80;66.00
19403;DHT22;9837;48.888;8.998;2024-02-21T08:48:10;10.90;66.60
19403;DHT22;9837;48.888;8.998;2024-02-21T08:50:35;10.90;65.90
19403;DHT22;9837;48.888;8.998;2024-02-21T08:53:01;10.90;65.60
19403;DHT22;9837;48.888;8.998;2024-02-21T08:55:27;11.60;63.20
19403;DHT22;9837;48.888;8.998;2024-02-21T08:57:52;11.60;63.80
19403;DHT22;9837;48.888;8.998;2024-02-21T09:00:18;11.80;63.60
19403;DHT22;9837;48.888;8.998;2024-02-21T09:02:46;12.50;61.20
19403;DHT22;9837;48.888;8.998;2024-02-21T09:05:12;12.50;61.80
19403;DHT22;9837;48.888;8.998;2024-02-21T09:07:37;12.80;61.10
19403;DHT22;9837;48.888;8.998;2024-02-21T09:10:03;13.40;58.40
19403;DHT22;9837;48.888;8.998;2024-02-21T09:12:29;13.50;58.00
19403;DHT22;9837;48.888;8.998;2024-02-21T09:14:54;13.50;58.10
19403;DHT22;9837;48.888;8.998;2024-02-21T09:17:20;13.50;58.70
19403;DHT22;9837;48.888;8.998;2024-02-21T09:19:46;13.30;58.30
19403;DHT22;9837;48.888;8.998;2024-02-21T09:22:12;13.20;59.70
19403;DHT22;9837;48.888;8.998;2024-02-21T09:24:38;13.80;58.00
19403;DHT22;9837;48.888;8.998;2024-02-21T09:27:04;13.90;58.50
19403;DHT22;9837;48.888;8.998;2024-02-21T09:29:29;13.90;58.30
19403;DHT22;9837;48.888;8.998;2024-02-21T09:34:20;13.90;57.90
19403;DHT22;9837;48.888;8.998;2024-02-21T09:36:46;14.10;57.30
19403;DHT22;9837;48.888;8.998;2024-02-21T09:39:12;14.20;57.30
19403;DHT22;9837;48.888;8.998;2024-02-21T09:41:45;14.00;57.20
19403;DHT22;9837;48.888;8.998;2024-02-21T09:44:13;13.80;58.20
19403;DHT22;9837;48.888;8.998;2024-02-21T09:47:03;13.70;58.40
19403;DHT22;9837;48.888;8.998;2024-02-21T09:49:33;14.10;57.50
19403;DHT22;9837;48.888;8.998;2024-02-21T09:52:03;14.20;57.40
19403;DHT22;9837;48.888;8.998;2024-02-21T09:54:30;14.60;56.50
19403;DHT22;9837;48.888;8.998;2024-02-21T09:57:03;14.60;57.00
19403;DHT22;9837;48.888;8.998;2024-02-21T09:59:31;14.80;56.40
19403;DHT22;9837;48.888;8.998;2024-02-21T10:01:56;15.30;54.40
19403;DHT22;9837;48.888;8.998;2024-02-21T10:04:22;15.30;54.90
19403;DHT22;9837;48.888;8.998;2024-02-21T10:06:48;15.40;55.50
19403;DHT22;9837;48.888;8.998;2024-02-21T10:09:24;15.60;54.00
19403;DHT22;9837;48.888;8.998;2024-02-21T10:11:50;16.00;53.40
19403;DHT22;9837;48.888;8.998;2024-02-21T10:14:16;16.00;51.90
19403;DHT22;9837;48.888;8.998;2024-02-21T10:16:44;15.90;52.30
19403;DHT22;9837;48.888;8.998;2024-02-21T10:19:19;15.60;53.30
19403;DHT22;9837;48.888;8.998;2024-02-21T10:24:27;15.80;52.70
19403;DHT22;9837;48.888;8.998;2024-02-21T10:27:04;15.90;52.60
19403;DHT22;9837;48.888;8.998;2024-02-21T10:29:33;15.90;51.60
19403;DHT22;9837;48.888;8.998;2024-02-21T10:32:14;15.90;52.30
19403;DHT22;9837;48.888;8.998;2024-02-21T10:34:42;15.90;50.40
19403;DHT22;9837;48.888;8.998;2024-02-21T10:37:09;15.90;51.00
19403;DHT22;9837;48.888;8.998;2024-02-21T10:39:40;16.50;50.30
19403;DHT22;9837;48.888;8.998;2024-02-21T10:42:06;16.50;50.90
19403;DHT22;9837;48.888;8.998;2024-02-21T10:44:34;16.80;50.50
19403;DHT22;9837;48.888;8.998;2024-02-21T10:47:07;16.90;49.50
19403;DHT22;9837;48.888;8.998;2024-02-21T10:49:38;16.90;48.90
19403;DHT22;9837;48.888;8.998;2024-02-21T10:55:03;16.90;48.90
19403;DHT22;9837;48.888;8.998;2024-02-21T10:57:29;16.90;49.90
19403;DHT22;9837;48.888;8.998;2024-02-21T10:59:58;17.00;48.40
19403;DHT22;9837;48.888;8.998;2024-02-21T11:02:25;17.30;47.80
19403;DHT22;9837;48.888;8.998;2024-02-21T11:04:52;19.50;49.40
19403;DHT22;9837;48.888;8.998;2024-02-21T11:07:19;17.10;45.60
19403;DHT22;9837;48.888;8.998;2024-02-21T11:09:52;16.90;46.00
19403;DHT22;9837;48.888;8.998;2024-02-21T11:12:21;16.90;46.70
19403;DHT22;9837;48.888;8.998;2024-02-21T11:14:47;16.80;47.40
19403;DHT22;9837;48.888;8.998;2024-02-21T11:17:16;16.90;47.90
19403;DHT22;9837;48.888;8.998;2024-02-21T11:19:42;17.10;47.10
19403;DHT22;9837;48.888;8.998;2024-02-21T11:22:18;17.10;47.60
19403;DHT22;9837;48.888;8.998;2024-02-21T11:24:44;17.30;47.70
19403;DHT22;9837;48.888;8.998;2024-02-21T11:29:44;17.50;49.30
19403;DHT22;9837;48.888;8.998;2024-02-21T11:32:11;17.60;47.00
19403;DHT22;9837;48.888;8.998;2024-02-21T11:34:37;17.50;48.10
19403;DHT22;9837;48.888;8.998;2024-02-21T11:37:13;17.40;48.50
19403;DHT22;9837;48.888;8.998;2024-02-21T11:39:41;17.30;47.70
19403;DHT22;9837;48.888;8.998;2024-02-21T11:42:07;17.40;48.00
19403;DHT22;9837;48.888;8.998;2024-02-21T11:44:34;17.60;47.60
19403;DHT22;9837;48.888;8.998;2024-02-21T11:47:00;17.70;47.60
19403;DHT22;9837;48.888;8.998;2024-02-21T11:49:28;17.70;47.00
19403;DHT22;9837;48.888;8.998;2024-02-21T11:52:00;17.60;47.20
19403;DHT22;9837;48.888;8.998;2024-02-21T11:54:27;17.60;47.90
19403;DHT22;9837;48.888;8.998;2024-02-21T11:56:53;17.40;49.10
19403;DHT22;9837;48.888;8.998;2024-02-21T11:59:19;17.40;49.60
19403;DHT22;9837;48.888;8.998;2024-02-21T12:01:45;17.50;49.20
19403;DHT22;9837;48.888;8.998;2024-02-21T12:04:10;17.40;50.20
19403;DHT22;9837;48.888;8.998;2024-02-21T12:06:36;17.40;49.80
19403;DHT22;9837;48.888;8.998;2024-02-21T12:09:01;17.40;49.80
19403;DHT22;9837;48.888;8.998;2024-02-21T12:11:27;16.90;49.90
19403;DHT22;9837;48.888;8.998;2024-02-21T12:14:00;16.90;50.50
19403;DHT22;9837;48.888;8.998;2024-02-21T12:16:27;16.90;49.70
19403;DHT22;9837;48.888;8.998;2024-02-21T12:18:54;16.90;50.30
19403;DHT22;9837;48.888;8.998;2024-02-21T12:21:19;16.80;49.90
19403;DHT22;9837;48.888;8.998;2024-02-21T12:23:48;16.80;50.00
19403;DHT22;9837;48.888;8.998;2024-02-21T12:26:14;16.80;50.60
19403;DHT22;9837;48.888;8.998;2024-02-21T12:28:39;16.70;50.20
19403;DHT22;9837;48.888;8.998;2024-02-21T12:31:05;16.70;50.00
19403;DHT22;9837;48.888;8.998;2024-02-21T12:33:31;16.50;50.00
19403;DHT22;9837;48.888;8.998;2024-02-21T12:35:57;16.60;50.70
19403;DHT22;9837;48.888;8.998;2024-02-21T12:38:22;16.70;51.00
19403;DHT22;9837;48.888;8.998;2024-02-21T12:40:48;16.90;50.70
19403;DHT22;9837;48.888;8.998;2024-02-21T12:45:40;17.30;50.20
19403;DHT22;9837;48.888;8.998;2024-02-21T12:48:05;17.00;50.10
19403;DHT22;9837;48.888;8.998;2024-02-21T12:50:31;17.00;51.20
19403;DHT22;9837;48.888;8.998;2024-02-21T12:52:57;17.00;51.80
19403;DHT22;9837;48.888;8.998;2024-02-21T12:55:23;16.80;50.90
19403;DHT22;9837;48.888;8.998;2024-02-21T12:57:49;16.40;52.40
19403;DHT22;9837;48.888;8.998;2024-02-21T13:00:15;16.40;52.60
19403;DHT22;9837;48.888;8.998;2024-02-21T13:02:40;16.50;51.90
19403;DHT22;9837;48.888;8.998;2024-02-21T13:05:06;16.50;52.50
19403;DHT22;9837;48.888;8.998;2024-02-21T13:07:33;16.70;52.80
19403;DHT22;9837;48.888;8.998;2024-02-21T13:09:58;16.20;53.40
19403;DHT22;9837;48.888;8.998;2024-02-21T13:12:24;16.10;53.90
19403;DHT22;9837;48.888;8.998;2024-02-21T13:14:51;15.80;54.30
19403;DHT22;9837;48.888;8.998;2024-02-21T13:17:17;15.70;54.80
19403;DHT22;9837;48.888;8.998;2024-02-21T13:19:42;15.40;56.00
19403;DHT22;9837;48.888;8.998;2024-02-21T13:22:08;15.30;56.50
19403;DHT22;9837;48.888;8.998;2024-02-21T13:24:34;15.20;55.80
19403;DHT22;9837;48.888;8.998;2024-02-21T13:26:59;15.20;56.30
19403;DHT22;9837;48.888;8.998;2024-02-21T13:29:25;14.90;57.50
19403;DHT22;9837;48.888;8.998;2024-02-21T13:31:50;14.70;57.90
19403;DHT22;9837;48.888;8.998;2024-02-21T13:34:16;14.90;57.20
19403;DHT22;9837;48.888;8.998;2024-02-21T13:36:42;14.90;57.60
19403;DHT22;9837;48.888;8.998;2024-02-21T13:39:08;15.20;55.90
19403;DHT22;9837;48.888;8.998;2024-02-21T13:41:34;15.30;56.50
19403;DHT22;9837;48.888;8.998;2024-02-21T13:44:00;15.30;57.00
19403;DHT22;9837;48.888;8.998;2024-02-21T13:46:25;15.60;56.50
19403;DHT22;9837;48.888;8.998;2024-02-21T13:48:54;16.00;55.20
19403;DHT22;9837;48.888;8.998;2024-02-21T13:51:26;16.30;54.00
19403;DHT22;9837;48.888;8.998;2024-02-21T13:53:52;16.30;53.20
19403;DHT22;9837;48.888;8.998;2024-02-21T13:56:17;16.30;52.80
19403;DHT22;9837;48.888;8.998;2024-02-21T13:58:44;16.20;52.70
19403;DHT22;9837;48.888;8.998;2024-02-21T14:01:09;16.40;53.10
19403;DHT22;9837;48.888;8.998;2024-02-21T14:06:00;16.60;52.80
19403;DHT22;9837;48.888;8.998;2024-02-21T14:08:26;16.90;51.30
19403;DHT22;9837;48.888;8.998;2024-02-21T14:10:51;16.90;51.50
19403;DHT22;9837;48.888;8.998;2024-02-21T14:13:17;16.80;51.00
19403;DHT22;9837;48.888;8.998;2024-02-21T14:15:44;16.70;52.10
19403;DHT22;9837;48.888;8.998;2024-02-21T14:18:11;16.70;52.70
19403;DHT22;9837;48.888;8.998;2024-02-21T14:20:39;16.50;53.40
19403;DHT22;9837;48.888;8.998;2024-02-21T14:23:04;15.80;54.60
19403;DHT22;9837;48.888;8.998;2024-02-21T14:25:30;15.60;55.20
19403;DHT22;9837;48.888;8.998;2024-02-21T14:27:55;15.50;55.70
19403;DHT22;9837;48.888;8.998;2024-02-21T14:30:21;15.10;56.10
19403;DHT22;9837;48.888;8.998;2024-02-21T14:32:46;14.90;57.00
19403;DHT22;9837;48.888;8.998;2024-02-21T14:35:12;15.20;56.60
19403;DHT22;9837;48.888;8.998;2024-02-21T14:37:37;15.50;55.90
19403;DHT22;9837;48.888;8.998;2024-02-21T14:40:03;15.70;55.30
19403;DHT22;9837;48.888;8.998;2024-02-21T14:42:29;15.90;55.00
19403;DHT22;9837;48.888;8.998;2024-02-21T14:44:54;16.00;54.60
19403;DHT22;9837;48.888;8.998;2024-02-21T14:47:32;16.00;55.00
19403;DHT22;9837;48.888;8.998;2024-02-21T14:49:58;16.00;54.40
19403;DHT22;9837;48.888;8.998;2024-02-21T14:52:23;16.10;54.60
19403;DHT22;9837;48.888;8.998;2024-02-21T14:54:53;16.10;54.30
19403;DHT22;9837;48.888;8.998;2024-02-21T14:57:18;16.30;53.70
19403;DHT22;9837;48.888;8.998;2024-02-21T14:59:45;16.30;54.20
19403;DHT22;9837;48.888;8.998;2024-02-21T15:02:11;16.40;53.70
19403;DHT22;9837;48.888;8.998;2024-02-21T15:04:36;16.40;52.90
19403;DHT22;9837;48.888;8.998;2024-02-21T15:07:02;16.20;53.10
19403;DHT22;9837;48.888;8.998;2024-02-21T15:09:28;16.20;53.20
19403;DHT22;9837;48.888;8.998;2024-02-21T15:11:54;16.20;53.50
19403;DHT22;9837;48.888;8.998;2024-02-21T15:14:19;16.10;53.90
19403;DHT22;9837;48.888;8.998;2024-02-21T15:16:45;15.80;54.10
19403;DHT22;9837;48.888;8.998;2024-02-21T15:19:11;15.80;54.40
19403;DHT22;9837;48.888;8.998;2024-02-21T15:21:37;15.80;55.10
19403;DHT22;9837;48.888;8.998;2024-02-21T15:24:02;15.80;55.30
19403;DHT22;9837;48.888;8.998;2024-02-21T15:26:29;15.70;55.60
19403;DHT22;9837;48.888;8.998;2024-02-21T15:28:55;15.70;56.20
19403;DHT22;9837;48.888;8.998;2024-02-21T15:31:23;15.10;57.10
19403;DHT22;9837;48.888;8.998;2024-02-21T15:33:52;14.70;58.40
19403;DHT22;9837;48.888;8.998;2024-02-21T15:36:18;14.80;59.00
19403;DHT22;9837;48.888;8.998;2024-02-21T15:38:46;15.10;59.00
19403;DHT22;9837;48.888;8.998;2024-02-21T15:43:40;15.50;57.30
19403;DHT22;9837;48.888;8.998;2024-02-21T15:46:06;15.80;57.30
19403;DHT22;9837;48.888;8.998;2024-02-21T15:48:31;15.80;56.30
19403;DHT22;9837;48.888;8.998;2024-02-21T15:51:00;15.80;56.30
19403;DHT22;9837;48.888;8.998;2024-02-21T15:53:26;15.80;56.10
19403;DHT22;9837;48.888;8.998;2024-02-21T15:55:51;15.80;56.00
19403;DHT22;9837;48.888;8.998;2024-02-21T15:58:17;15.90;56.00
19403;DHT22;9837;48.888;8.998;2024-02-21T16:00:45;15.90;56.50
19403;DHT22;9837;48.888;8.998;2024-02-21T16:03:11;15.90;56.40
19403;DHT22;9837;48.888;8.998;2024-02-21T16:05:36;16.00;56.40
19403;DHT22;9837;48.888;8.998;2024-02-21T16:08:02;16.00;55.70
19403;DHT22;9837;48.888;8.998;2024-02-21T16:10:27;16.10;55.70
19403;DHT22;9837;48.888;8.998;2024-02-21T16:12:53;16.10;55.10
19403;DHT22;9837;48.888;8.998;2024-02-21T16:15:18;16.10;55.60
19403;DHT22;9837;48.888;8.998;2024-02-21T16:17:44;16.00;53.60
19403;DHT22;9837;48.888;8.998;2024-02-21T16:20:10;16.00;54.10
19403;DHT22;9837;48.888;8.998;2024-02-21T16:22:36;15.90;51.80
19403;DHT22;9837;48.888;8.998;2024-02-21T16:25:03;15.80;50.70
19403;DHT22;9837;48.888;8.998;2024-02-21T16:27:28;15.70;50.00